Valley of Enchantment, California
Current Conditions -  °F | °C
As of 4:48 PM on Saturday 22 Nov 2014 (Local Time) from KSBD Reporting Station
Scattered Clouds Scattered Clouds  
Wind Chill: 64°   Ceiling: Unl
Heat Index: 64°   Visibility: 10mi
Dew Point: 39°   Wind: 5mph
Humidity: 40%   Direction: 250°WSW
Pressure: 30.01"   Gusts: NA
Location:  34.198°N, 117.218°W
Report Text: KSBD 230048Z 25004KT 10SM SCT200 18/04 A3001
Loading
Personal Weather Stations






























Interactive Weather Map New forecast layout! Learn more

10-Day Weather Forecast

Advertisements
Track Severe Weather on mobile